Time;durP1;ratioP1;P1;durP2;ratioP2;P2;SDS_P1;SDS_P2;PMS_P1;PMS_P2;Temp;Humidity;BMP_temperature;BMP_pressure;BME280_temperature;BME280_humidity;BME280_pressure;Samples;Min_cycle;Max_cycle;Signal;HPM_P1;HPM_P2
2021/12/21 00:01:23;;;;;;;;;;;0.30;99.90;;;;;;5050237;28;19932;-48
2021/12/21 00:03:50;;;;;;;;;;;0.20;99.90;;;;;;5051039;28;19936;-48
2021/12/21 00:06:16;;;;;;;;;;;0.30;99.90;;;;;;5055037;28;19961;-48
2021/12/21 00:08:43;;;;;;;;;;;0.20;99.90;;;;;;5070738;28;19928;-48
2021/12/21 00:11:10;;;;;;;;;;;0.20;99.90;;;;;;5070648;28;20344;-48
2021/12/21 00:13:51;;;;;;;;;;;0.20;99.90;;;;;;5070880;28;19925;-49
2021/12/21 00:16:40;;;;;;;;;;;0.10;99.90;;;;;;5062439;28;19924;-49
2021/12/21 00:19:21;;;;;;;;;;;0.00;99.90;;;;;;5070450;28;19925;-49
2021/12/21 00:21:54;;;;;;;;;;;-0.10;99.90;;;;;;5070351;28;19925;-49
2021/12/21 00:24:24;;;;;;;;;;;-0.20;99.90;;;;;;5070486;28;19930;-49
2021/12/21 00:26:50;;;;;;;;;;;-0.30;99.90;;;;;;5060957;28;19932;-48
2021/12/21 00:29:17;;;;;;;;;;;-0.30;99.90;;;;;;5045680;28;19929;-49
2021/12/21 00:31:44;;;;;;;;;;;-0.30;99.90;;;;;;5050326;28;20015;-49
2021/12/21 00:34:12;;;;;;;;;;;-0.30;99.90;;;;;;5049914;28;19978;-48
2021/12/21 00:36:39;;;;;;;;;;;-0.50;99.90;;;;;;5056931;28;20364;-48
2021/12/21 00:39:10;;;;;;;;;;;-0.60;99.90;;;;;;5070143;28;20340;-48
2021/12/21 00:41:37;;;;;;;;;;;-0.70;99.90;;;;;;5070333;28;20319;-49
2021/12/21 00:44:04;;;;;;;;;;;-0.80;99.90;;;;;;5070112;28;19925;-48
2021/12/21 00:46:31;;;;;;;;;;;-0.90;99.90;;;;;;5062869;28;20351;-49
2021/12/21 00:49:13;;;;;;;;;;;-0.90;99.90;;;;;;5044463;28;19925;-48
2021/12/21 00:51:42;;;;;;;;;;;-0.90;99.90;;;;;;5049854;28;19986;-49
2021/12/21 00:54:09;;;;;;;;;;;-1.00;99.90;;;;;;5050363;28;19925;-48
2021/12/21 00:56:35;;;;;;;;;;;-1.00;99.90;;;;;;5055045;28;19929;-48
2021/12/21 00:59:02;;;;;;;;;;;-1.00;99.90;;;;;;5069848;28;20002;-48
2021/12/21 01:01:29;;;;;;;;;;;-1.00;99.90;;;;;;5055018;28;19925;-49
2021/12/21 01:03:58;;;;;;;;;;;-1.00;99.90;;;;;;5050081;28;20353;-49
2021/12/21 01:06:37;;;;;;;;;;;-1.00;99.90;;;;;;5052865;28;19956;-48
2021/12/21 01:09:11;;;;;;;;;;;-0.90;99.90;;;;;;5070454;28;19924;-49
2021/12/21 01:11:41;;;;;;;;;;;-0.80;99.90;;;;;;5069727;28;20297;-48
2021/12/21 01:14:34;;;;;;;;;;;-0.80;99.90;;;;;;5069868;28;19978;-48
2021/12/21 01:17:06;;;;;;;;;;;-0.70;99.90;;;;;;5061420;28;19949;-48
2021/12/21 01:19:37;;;;;;;;;;;-0.60;99.90;;;;;;5049769;28;20329;-48
2021/12/21 01:22:12;;;;;;;;;;;-0.50;99.90;;;;;;5049693;28;19924;-48
2021/12/21 01:27:33;;;;;;;;;;;-0.30;99.90;;;;;;5047084;28;19925;-48
2021/12/21 01:30:08;;;;;;;;;;;-0.30;99.90;;;;;;5049813;28;20023;-48
2021/12/21 01:32:55;;;;;;;;;;;-0.40;99.90;;;;;;5049051;28;19924;-47
2021/12/21 01:35:28;;;;;;;;;;;-0.40;99.90;;;;;;5049527;28;19929;-48
2021/12/21 01:38:01;;;;;;;;;;;-0.50;99.90;;;;;;5064653;28;19932;-48
2021/12/21 01:43:22;;;;;;;;;;;-0.40;99.90;;;;;;5069087;28;20023;-48
2021/12/21 01:51:19;;;;;;;;;;;-0.60;99.90;;;;;;5049334;28;19947;-48
2021/12/21 01:53:46;;;;;;;;;;;-0.50;99.90;;;;;;5049801;28;19932;-48
2021/12/21 01:56:15;;;;;;;;;;;-0.60;99.90;;;;;;5049505;28;19924;-47
2021/12/21 01:58:42;;;;;;;;;;;-0.60;99.90;;;;;;5029755;28;19933;-47
2021/12/21 02:01:10;;;;;;;;;;;-0.70;99.90;;;;;;5029395;28;19959;-48
2021/12/21 02:03:36;;;;;;;;;;;-0.70;99.90;;;;;;5042622;28;19983;-49
2021/12/21 02:06:06;;;;;;;;;;;-0.60;99.90;;;;;;5049323;28;19924;-49
2021/12/21 02:08:33;;;;;;;;;;;-0.60;99.90;;;;;;5068302;28;20015;-48
2021/12/21 02:11:04;;;;;;;;;;;-0.70;99.90;;;;;;5069255;28;19929;-48
2021/12/21 02:13:36;;;;;;;;;;;-0.70;99.90;;;;;;5069191;28;19924;-48
2021/12/21 02:16:03;;;;;;;;;;;-0.70;99.90;;;;;;5069109;28;19925;-48
2021/12/21 02:18:37;;;;;;;;;;;-0.80;99.90;;;;;;5050013;28;19925;-48
2021/12/21 02:21:18;;;;;;;;;;;-0.90;99.90;;;;;;5048973;28;20290;-47
2021/12/21 02:23:46;;;;;;;;;;;-1.00;99.90;;;;;;5050249;28;20003;-49
2021/12/21 02:26:33;;;;;;;;;;;-1.00;99.90;;;;;;5052712;28;19929;-48
2021/12/21 02:29:13;;;;;;;;;;;-0.90;99.90;;;;;;5032636;28;19964;-48
2021/12/21 02:31:41;;;;;;;;;;;-1.00;99.90;;;;;;5048639;28;19933;-49
2021/12/21 02:34:08;;;;;;;;;;;-0.90;99.90;;;;;;5052279;28;19979;-49
2021/12/21 02:36:37;;;;;;;;;;;-0.80;99.90;;;;;;5054348;28;19972;-48
2021/12/21 02:39:05;;;;;;;;;;;-0.80;99.90;;;;;;5072208;28;19978;-49
2021/12/21 02:41:32;;;;;;;;;;;-0.80;99.90;;;;;;5072307;28;20344;-48
2021/12/21 02:43:58;;;;;;;;;;;-0.90;99.90;;;;;;5072214;28;19925;-48
2021/12/21 02:46:25;;;;;;;;;;;-0.80;99.90;;;;;;5071473;28;19997;-48
2021/12/21 02:48:53;;;;;;;;;;;-0.80;99.90;;;;;;5044625;28;19925;-49
2021/12/21 02:51:19;;;;;;;;;;;-0.70;99.90;;;;;;5032064;28;19925;-49
2021/12/21 02:53:47;;;;;;;;;;;-0.80;99.90;;;;;;5032644;28;19925;-49
2021/12/21 02:56:14;;;;;;;;;;;-0.90;99.90;;;;;;5032361;28;20354;-49
2021/12/21 02:58:41;;;;;;;;;;;-0.90;99.90;;;;;;5052641;28;20362;-48
2021/12/21 03:01:10;;;;;;;;;;;-0.80;99.90;;;;;;5051973;28;19978;-49
2021/12/21 03:03:36;;;;;;;;;;;-0.80;99.90;;;;;;5051661;28;20424;-49
2021/12/21 03:06:08;;;;;;;;;;;-0.70;99.90;;;;;;5051704;28;20340;-48
2021/12/21 03:08:39;;;;;;;;;;;-0.70;99.90;;;;;;5069489;28;19925;-49
2021/12/21 03:11:14;;;;;;;;;;;-0.70;99.90;;;;;;5071813;28;19963;-49
2021/12/21 03:14:04;;;;;;;;;;;-0.80;99.90;;;;;;5071812;28;19940;-48
2021/12/21 03:16:32;;;;;;;;;;;-0.90;99.90;;;;;;5071172;28;20095;-49
2021/12/21 03:18:59;;;;;;;;;;;-0.90;99.90;;;;;;5051571;28;19976;-49
2021/12/21 03:21:26;;;;;;;;;;;-0.90;99.90;;;;;;5051422;28;19928;-49
2021/12/21 03:23:53;;;;;;;;;;;-0.90;99.90;;;;;;5051607;28;19924;-49
2021/12/21 03:26:21;;;;;;;;;;;-1.00;99.90;;;;;;5051749;28;20029;-49
2021/12/21 03:28:48;;;;;;;;;;;-1.10;99.90;;;;;;5070822;28;19997;-49
2021/12/21 03:31:15;;;;;;;;;;;-1.10;99.90;;;;;;5071528;28;19993;-49
2021/12/21 03:33:42;;;;;;;;;;;-1.20;99.90;;;;;;5053939;28;20364;-48
2021/12/21 03:36:08;;;;;;;;;;;-1.30;99.90;;;;;;5051096;28;19926;-49
2021/12/21 03:38:37;;;;;;;;;;;-1.30;99.90;;;;;;5068394;28;19996;-49
2021/12/21 03:41:08;;;;;;;;;;;-1.20;99.90;;;;;;5071095;28;20562;-49
2021/12/21 03:43:36;;;;;;;;;;;-1.20;99.90;;;;;;5071450;28;19934;-48
2021/12/21 03:46:09;;;;;;;;;;;-1.20;99.90;;;;;;5071417;28;19924;-49
2021/12/21 03:48:35;;;;;;;;;;;-1.30;99.90;;;;;;5054233;28;19929;-48
2021/12/21 03:51:03;;;;;;;;;;;-1.20;99.90;;;;;;5051267;28;19933;-49
2021/12/21 03:53:29;;;;;;;;;;;-1.00;99.90;;;;;;5051403;28;19924;-50
2021/12/21 03:56:19;;;;;;;;;;;-0.90;99.90;;;;;;5051362;28;19925;-49
2021/12/21 03:58:47;;;;;;;;;;;-0.90;99.90;;;;;;5068071;28;20443;-49
2021/12/21 04:01:14;;;;;;;;;;;-0.90;99.90;;;;;;5070656;28;19977;-48
2021/12/21 04:03:41;;;;;;;;;;;-0.90;99.90;;;;;;5052086;28;19925;-49
2021/12/21 04:06:08;;;;;;;;;;;-0.70;99.90;;;;;;5084502;22;20344;-48
2021/12/21 04:08:35;;;;;;;;;;;-0.70;99.90;;;;;;5072348;28;19924;-49
2021/12/21 04:11:02;;;;;;;;;;;-0.60;99.90;;;;;;5072594;28;20015;-48
2021/12/21 04:13:29;;;;;;;;;;;-0.60;99.90;;;;;;5072576;28;19928;-49
2021/12/21 04:16:00;;;;;;;;;;;-0.60;99.90;;;;;;5072702;28;19929;-48
2021/12/21 04:18:26;;;;;;;;;;;-0.70;99.90;;;;;;5071590;28;19924;-50
2021/12/21 04:20:53;;;;;;;;;;;-0.70;99.90;;;;;;5072142;28;19925;-49
2021/12/21 04:23:20;;;;;;;;;;;-0.80;99.90;;;;;;5072309;28;20373;-47
2021/12/21 04:25:47;;;;;;;;;;;-0.80;99.90;;;;;;5071752;28;19924;-49
2021/12/21 04:28:14;;;;;;;;;;;-0.70;99.90;;;;;;5073039;28;20401;-49
2021/12/21 04:30:40;;;;;;;;;;;-0.60;99.90;;;;;;5072096;28;20564;-49
2021/12/21 04:33:09;;;;;;;;;;;-0.60;99.90;;;;;;5072781;28;20340;-47
2021/12/21 04:35:35;;;;;;;;;;;-0.60;99.90;;;;;;5072048;28;20344;-49
2021/12/21 04:38:19;;;;;;;;;;;-0.60;99.90;;;;;;5071558;28;20005;-47
2021/12/21 04:40:48;;;;;;;;;;;-0.70;99.90;;;;;;5072175;28;20328;-51
2021/12/21 04:43:15;;;;;;;;;;;-0.80;99.90;;;;;;5072200;28;19946;-50
2021/12/21 04:45:43;;;;;;;;;;;-0.80;99.90;;;;;;5071380;28;19931;-48
2021/12/21 04:48:12;;;;;;;;;;;-0.90;99.90;;;;;;5071186;28;20011;-48
2021/12/21 04:50:38;;;;;;;;;;;-0.80;99.90;;;;;;5055569;28;19929;-47
2021/12/21 04:53:05;;;;;;;;;;;-0.70;99.90;;;;;;5069141;28;20459;-48
2021/12/21 04:55:32;;;;;;;;;;;-0.80;99.90;;;;;;5071872;28;19958;-48
2021/12/21 04:57:59;;;;;;;;;;;-0.90;99.90;;;;;;5071355;28;19928;-47
2021/12/21 05:00:26;;;;;;;;;;;-0.90;99.90;;;;;;5075936;28;20386;-48
2021/12/21 05:02:53;;;;;;;;;;;-0.90;99.90;;;;;;5071106;28;19931;-48
2021/12/21 05:05:23;;;;;;;;;;;-0.80;99.90;;;;;;5070650;28;20465;-47
2021/12/21 05:07:55;;;;;;;;;;;-0.70;99.90;;;;;;5071252;28;19931;-47
2021/12/21 05:10:22;;;;;;;;;;;-0.90;99.90;;;;;;5071936;28;20097;-47
2021/12/21 05:12:49;;;;;;;;;;;-1.00;99.90;;;;;;5071374;28;20015;-48
2021/12/21 05:15:16;;;;;;;;;;;-1.10;99.90;;;;;;5071491;28;20385;-47
2021/12/21 05:17:42;;;;;;;;;;;-1.10;99.90;;;;;;5071139;28;19970;-48
2021/12/21 05:20:09;;;;;;;;;;;-1.20;99.90;;;;;;5071067;28;19932;-47
2021/12/21 05:22:38;;;;;;;;;;;-1.10;99.90;;;;;;5071268;28;19993;-48
2021/12/21 05:25:05;;;;;;;;;;;-1.00;99.90;;;;;;5071618;28;19970;-47
2021/12/21 05:27:32;;;;;;;;;;;-1.10;99.90;;;;;;5071097;28;20007;-48
2021/12/21 05:29:58;;;;;;;;;;;-1.30;99.90;;;;;;5072491;28;19924;-47
2021/12/21 05:32:26;;;;;;;;;;;-1.40;99.90;;;;;;5075606;28;19957;-48
2021/12/21 05:34:53;;;;;;;;;;;-1.60;99.90;;;;;;5071220;28;19931;-47
2021/12/21 05:37:19;;;;;;;;;;;-1.70;99.90;;;;;;5071183;28;19928;-48
2021/12/21 05:39:56;;;;;;;;;;;-1.70;99.90;;;;;;5071556;28;19924;-47
2021/12/21 05:42:24;;;;;;;;;;;-1.80;99.90;;;;;;5078845;28;20439;-47
2021/12/21 05:44:50;;;;;;;;;;;-1.90;99.90;;;;;;5075716;28;19925;-47
2021/12/21 05:47:18;;;;;;;;;;;-2.00;99.90;;;;;;5070720;28;19925;-47
2021/12/21 05:49:46;;;;;;;;;;;-2.00;99.90;;;;;;5069174;28;19929;-47
2021/12/21 05:52:13;;;;;;;;;;;-2.10;99.90;;;;;;5070588;28;19924;-47
2021/12/21 05:54:40;;;;;;;;;;;-2.10;99.90;;;;;;5072880;28;19928;-47
2021/12/21 05:57:08;;;;;;;;;;;-2.10;99.90;;;;;;5070263;28;19978;-47
2021/12/21 05:59:35;;;;;;;;;;;-2.20;99.90;;;;;;5071123;28;19941;-47
2021/12/21 06:02:02;;;;;;;;;;;-2.20;99.90;;;;;;5086399;28;19928;-47
2021/12/21 06:04:29;;;;;;;;;;;-2.20;99.90;;;;;;5084866;28;19931;-47
2021/12/21 06:06:56;;;;;;;;;;;-2.10;99.90;;;;;;5086453;28;19970;-47
2021/12/21 06:09:23;;;;;;;;;;;-2.00;99.90;;;;;;5074999;28;19936;-48
2021/12/21 06:12:01;;;;;;;;;;;-1.90;99.90;;;;;;5074222;28;19924;-47
2021/12/21 06:22:47;;;;;;;;;;;-1.50;99.90;;;;;;5094773;28;19942;-48
2021/12/21 06:25:37;;;;;;;;;;;-1.40;99.90;;;;;;5081411;28;19931;-48
2021/12/21 06:28:05;;;;;;;;;;;-1.40;99.90;;;;;;5074521;28;20007;-48
2021/12/21 06:30:34;;;;;;;;;;;-1.40;99.90;;;;;;5074463;28;19977;-47
2021/12/21 06:33:01;;;;;;;;;;;-1.40;99.90;;;;;;5058076;28;20452;-48
2021/12/21 06:35:28;;;;;;;;;;;-1.40;99.90;;;;;;5054330;28;19925;-48
2021/12/21 06:37:55;;;;;;;;;;;-1.40;99.90;;;;;;5092702;28;19924;-48
2021/12/21 06:40:22;;;;;;;;;;;-1.50;99.90;;;;;;5073188;28;20077;-48
2021/12/21 06:42:51;;;;;;;;;;;-1.50;99.90;;;;;;5073696;28;19924;-47
2021/12/21 06:45:28;;;;;;;;;;;-1.50;99.90;;;;;;5074170;28;19925;-47
2021/12/21 06:53:26;;;;;;;;;;;-1.30;99.90;;;;;;5070940;28;19927;-47
2021/12/21 06:55:53;;;;;;;;;;;-1.20;99.90;;;;;;5073665;28;19928;-47
2021/12/21 06:58:22;;;;;;;;;;;-1.30;99.90;;;;;;5073864;28;19928;-48
2021/12/21 07:00:52;;;;;;;;;;;-1.40;99.90;;;;;;5073983;28;19925;-47
2021/12/21 07:03:20;;;;;;;;;;;-1.50;99.90;;;;;;5072903;28;19932;-47
2021/12/21 07:05:48;;;;;;;;;;;-1.50;99.90;;;;;;5073267;28;19933;-48
2021/12/21 07:20:29;;;;;;;;;;;-1.10;99.90;;;;;;5062876;28;19923;-47
2021/12/21 07:22:57;;;;;;;;;;;-1.10;99.90;;;;;;5070743;28;19924;-49
2021/12/21 07:25:25;;;;;;;;;;;-1.10;99.90;;;;;;5075916;28;20386;-48
2021/12/21 07:27:52;;;;;;;;;;;-1.10;99.90;;;;;;5072740;28;19959;-48
2021/12/21 07:30:19;;;;;;;;;;;-1.10;99.90;;;;;;5072986;28;19925;-49
2021/12/21 07:32:45;;;;;;;;;;;-0.90;99.90;;;;;;5067700;28;19929;-48
2021/12/21 07:35:12;;;;;;;;;;;-0.90;99.90;;;;;;5064722;28;19932;-48
2021/12/21 07:37:40;;;;;;;;;;;-1.00;99.90;;;;;;5066546;28;20001;-48
2021/12/21 07:40:08;;;;;;;;;;;-1.00;99.90;;;;;;5063155;28;19990;-48
2021/12/21 07:42:35;;;;;;;;;;;-1.00;99.90;;;;;;5061728;28;19928;-46
2021/12/21 07:45:02;;;;;;;;;;;-1.00;99.90;;;;;;5059642;28;20054;-47
2021/12/21 07:47:28;;;;;;;;;;;-1.00;99.90;;;;;;5061767;28;19928;-48
2021/12/21 07:49:55;;;;;;;;;;;-1.00;99.90;;;;;;5074853;28;19982;-48
2021/12/21 07:52:22;;;;;;;;;;;-0.90;99.90;;;;;;5077071;28;19928;-47
2021/12/21 07:54:50;;;;;;;;;;;-0.80;99.90;;;;;;5072631;28;20372;-47
2021/12/21 07:57:17;;;;;;;;;;;-0.80;99.90;;;;;;5069429;28;19971;-47
2021/12/21 07:59:44;;;;;;;;;;;-0.60;99.90;;;;;;5068530;28;19924;-48
2021/12/21 08:02:11;;;;;;;;;;;-0.50;99.90;;;;;;5069415;28;20359;-47
2021/12/21 08:04:39;;;;;;;;;;;-0.40;99.90;;;;;;5071083;28;20382;-48
2021/12/21 08:07:11;;;;;;;;;;;-0.40;99.90;;;;;;5073198;28;19936;-48
2021/12/21 08:09:41;;;;;;;;;;;-0.50;99.90;;;;;;5069136;28;19928;-48
2021/12/21 08:12:14;;;;;;;;;;;-0.40;99.90;;;;;;5068537;28;19967;-48
2021/12/21 08:14:41;;;;;;;;;;;-0.40;99.90;;;;;;5070715;28;19974;-48
2021/12/21 08:17:08;;;;;;;;;;;-0.40;99.90;;;;;;5068424;28;19978;-48
2021/12/21 08:19:35;;;;;;;;;;;-0.40;99.90;;;;;;5071353;28;19924;-48
2021/12/21 08:22:02;;;;;;;;;;;-0.30;99.90;;;;;;5069718;28;19924;-48
2021/12/21 08:24:29;;;;;;;;;;;-0.20;99.90;;;;;;5072565;28;20414;-47
2021/12/21 08:26:56;;;;;;;;;;;-0.10;99.90;;;;;;5063611;28;20309;-48
2021/12/21 08:29:24;;;;;;;;;;;0.00;99.90;;;;;;5071355;28;20367;-49
2021/12/21 08:31:51;;;;;;;;;;;0.00;99.90;;;;;;5071783;28;19928;-48
2021/12/21 08:34:17;;;;;;;;;;;0.20;99.90;;;;;;5068773;28;19928;-48
2021/12/21 08:36:44;;;;;;;;;;;0.30;99.90;;;;;;5070605;28;19978;-48
2021/12/21 08:39:11;;;;;;;;;;;0.20;99.90;;;;;;5065707;28;19932;-47
2021/12/21 08:41:42;;;;;;;;;;;0.30;99.90;;;;;;5066624;28;20626;-49
2021/12/21 08:44:10;;;;;;;;;;;0.30;99.90;;;;;;5060252;28;20433;-48
2021/12/21 08:46:40;;;;;;;;;;;0.20;99.90;;;;;;5060170;28;20382;-48
2021/12/21 08:49:06;;;;;;;;;;;0.30;99.90;;;;;;5060934;28;19977;-48
2021/12/21 08:51:33;;;;;;;;;;;0.40;99.90;;;;;;5059712;28;19990;-47
2021/12/21 08:54:00;;;;;;;;;;;0.40;99.90;;;;;;5068236;28;20393;-49
2021/12/21 08:56:27;;;;;;;;;;;0.40;99.90;;;;;;5061378;28;19986;-49
2021/12/21 08:58:54;;;;;;;;;;;0.40;99.90;;;;;;5058501;28;19932;-48
2021/12/21 09:01:21;;;;;;;;;;;0.40;99.90;;;;;;5059448;28;19925;-48
2021/12/21 09:03:49;;;;;;;;;;;0.40;99.90;;;;;;5061606;28;19934;-48
2021/12/21 09:06:16;;;;;;;;;;;0.40;99.90;;;;;;5058064;28;19971;-47
2021/12/21 09:08:43;;;;;;;;;;;0.60;99.90;;;;;;5059562;28;19933;-48
2021/12/21 09:11:10;;;;;;;;;;;0.60;99.90;;;;;;5061049;28;19977;-47
2021/12/21 09:13:37;;;;;;;;;;;0.70;99.90;;;;;;5062499;28;20402;-48
2021/12/21 09:16:05;;;;;;;;;;;0.60;99.90;;;;;;5068651;28;19924;-48
2021/12/21 09:18:32;;;;;;;;;;;0.70;99.90;;;;;;5061535;28;19945;-48
2021/12/21 09:21:00;;;;;;;;;;;0.70;99.90;;;;;;5057003;28;19932;-48
2021/12/21 09:23:28;;;;;;;;;;;0.70;99.90;;;;;;5059113;28;19970;-49
2021/12/21 09:25:58;;;;;;;;;;;0.80;99.90;;;;;;5060359;28;20535;-48
2021/12/21 09:28:25;;;;;;;;;;;1.00;99.90;;;;;;5061132;28;19935;-47
2021/12/21 09:30:52;;;;;;;;;;;1.00;99.90;;;;;;5056402;28;20458;-47
2021/12/21 09:33:19;;;;;;;;;;;1.00;99.90;;;;;;5064935;28;20019;-49
2021/12/21 09:35:45;;;;;;;;;;;0.90;99.90;;;;;;5062525;28;20020;-48
2021/12/21 09:38:14;;;;;;;;;;;1.10;99.90;;;;;;5067902;28;19993;-48
2021/12/21 09:40:40;;;;;;;;;;;1.10;99.90;;;;;;5060554;28;19925;-47
2021/12/21 09:43:08;;;;;;;;;;;0.90;99.90;;;;;;5064216;28;20382;-47
2021/12/21 09:45:36;;;;;;;;;;;0.90;99.90;;;;;;5064300;28;20453;-47
2021/12/21 09:48:03;;;;;;;;;;;0.90;99.90;;;;;;5058374;28;19940;-48
2021/12/21 09:50:30;;;;;;;;;;;1.00;99.90;;;;;;5063420;28;19929;-48
2021/12/21 09:52:57;;;;;;;;;;;1.00;99.90;;;;;;5063682;28;19928;-48
2021/12/21 09:55:29;;;;;;;;;;;1.00;99.90;;;;;;5064746;28;20356;-48
2021/12/21 09:57:56;;;;;;;;;;;1.00;99.90;;;;;;5061937;28;19998;-48
2021/12/21 10:00:25;;;;;;;;;;;1.00;99.90;;;;;;5063015;28;19939;-47
2021/12/21 10:02:52;;;;;;;;;;;1.10;99.90;;;;;;5067197;28;20024;-49
2021/12/21 10:05:21;;;;;;;;;;;1.10;99.90;;;;;;5072501;28;19932;-49
2021/12/21 10:07:58;;;;;;;;;;;1.30;99.90;;;;;;5110583;22;19931;-49
2021/12/21 10:10:27;;;;;;;;;;;1.40;99.90;;;;;;5090935;28;20417;-49
2021/12/21 10:12:53;;;;;;;;;;;1.40;99.90;;;;;;5093729;28;19925;-49
2021/12/21 10:15:21;;;;;;;;;;;1.40;99.90;;;;;;5094496;28;19977;-50
2021/12/21 10:17:49;;;;;;;;;;;1.40;99.90;;;;;;5092130;28;20590;-49
2021/12/21 10:20:30;;;;;;;;;;;1.50;99.90;;;;;;5093228;28;19964;-49
2021/12/21 10:22:57;;;;;;;;;;;1.50;99.90;;;;;;5092602;28;19924;-50
2021/12/21 10:25:26;;;;;;;;;;;1.50;99.90;;;;;;5090005;28;19931;-49
2021/12/21 10:27:52;;;;;;;;;;;1.30;99.90;;;;;;5084617;28;19928;-49
2021/12/21 10:30:19;;;;;;;;;;;1.40;99.90;;;;;;5086277;28;19928;-49
2021/12/21 10:32:50;;;;;;;;;;;1.60;99.90;;;;;;5087676;28;19928;-49
2021/12/21 10:35:17;;;;;;;;;;;1.50;99.90;;;;;;5086439;28;19924;-49
2021/12/21 10:37:44;;;;;;;;;;;1.40;99.90;;;;;;5087019;28;19932;-49
2021/12/21 10:40:16;;;;;;;;;;;1.40;99.90;;;;;;5086614;28;19935;-49
2021/12/21 10:42:56;;;;;;;;;;;1.50;99.90;;;;;;5086640;28;19932;-49
2021/12/21 10:45:28;;;;;;;;;;;1.50;99.90;;;;;;5085726;28;20459;-49
2021/12/21 10:47:55;;;;;;;;;;;1.50;99.90;;;;;;5085167;28;19928;-49
2021/12/21 10:50:22;;;;;;;;;;;1.40;99.90;;;;;;5085406;28;19936;-49
2021/12/21 10:52:49;;;;;;;;;;;1.60;99.90;;;;;;5086210;28;20581;-49
2021/12/21 10:55:16;;;;;;;;;;;1.70;99.90;;;;;;5084371;28;19924;-49
2021/12/21 10:57:43;;;;;;;;;;;1.70;99.90;;;;;;5085656;28;19928;-49
2021/12/21 11:00:14;;;;;;;;;;;1.70;99.90;;;;;;5085475;28;19931;-49
2021/12/21 11:02:41;;;;;;;;;;;1.60;99.90;;;;;;5084628;28;20021;-49
2021/12/21 11:05:10;;;;;;;;;;;1.60;99.90;;;;;;5090251;28;19924;-49
2021/12/21 11:07:42;;;;;;;;;;;1.70;99.90;;;;;;5091686;28;19924;-49
2021/12/21 11:10:12;;;;;;;;;;;1.70;99.90;;;;;;5088793;28;20036;-49
2021/12/21 11:12:46;;;;;;;;;;;1.50;99.90;;;;;;5088362;28;19928;-49
2021/12/21 11:15:16;;;;;;;;;;;1.50;99.90;;;;;;5085978;28;20386;-50
2021/12/21 11:17:44;;;;;;;;;;;1.60;99.90;;;;;;5086285;28;19924;-49
2021/12/21 11:20:12;;;;;;;;;;;1.50;99.90;;;;;;5088808;28;20386;-50
2021/12/21 11:22:39;;;;;;;;;;;1.50;99.90;;;;;;5086173;28;19924;-49
2021/12/21 11:25:07;;;;;;;;;;;1.50;99.90;;;;;;5088435;28;19924;-50
2021/12/21 11:27:35;;;;;;;;;;;1.30;99.90;;;;;;5090170;28;19993;-50
2021/12/21 11:30:04;;;;;;;;;;;1.20;99.90;;;;;;5093196;28;19970;-50
2021/12/21 11:32:34;;;;;;;;;;;1.40;99.90;;;;;;5092954;28;19923;-50
2021/12/21 11:37:47;;;;;;;;;;;1.60;99.90;;;;;;5087036;28;20434;-50
2021/12/21 11:40:16;;;;;;;;;;;1.70;99.90;;;;;;5090049;28;19924;-50
2021/12/21 11:42:46;;;;;;;;;;;1.70;99.90;;;;;;5089200;28;20693;-50
2021/12/21 11:45:14;;;;;;;;;;;1.70;99.90;;;;;;5085267;28;20282;-50
2021/12/21 11:47:48;;;;;;;;;;;1.60;99.90;;;;;;5090469;28;19924;-50
2021/12/21 11:50:15;;;;;;;;;;;1.40;99.90;;;;;;5092828;28;19985;-50
2021/12/21 11:52:43;;;;;;;;;;;1.60;99.90;;;;;;5093424;28;19994;-50
2021/12/21 11:55:11;;;;;;;;;;;1.90;99.90;;;;;;5097322;28;20335;-51
2021/12/21 11:57:39;;;;;;;;;;;2.20;99.90;;;;;;5095708;28;19928;-50
2021/12/21 12:00:07;;;;;;;;;;;2.20;99.90;;;;;;5097594;28;20169;-50
2021/12/21 12:02:35;;;;;;;;;;;2.20;99.90;;;;;;5095446;28;19993;-50
2021/12/21 12:05:03;;;;;;;;;;;2.20;99.90;;;;;;5097820;28;20019;-50
2021/12/21 12:07:31;;;;;;;;;;;2.10;99.90;;;;;;5095278;28;19978;-50
2021/12/21 12:10:09;;;;;;;;;;;1.90;99.90;;;;;;5090307;28;19935;-50
2021/12/21 12:12:35;;;;;;;;;;;2.00;99.90;;;;;;5091934;28;20352;-50
2021/12/21 12:15:03;;;;;;;;;;;1.90;99.90;;;;;;5091242;28;19924;-50
2021/12/21 12:17:30;;;;;;;;;;;2.00;99.90;;;;;;5092218;28;19924;-50
2021/12/21 12:20:00;;;;;;;;;;;1.90;99.90;;;;;;5090202;28;19970;-50
2021/12/21 12:22:36;;;;;;;;;;;1.90;99.90;;;;;;5091941;28;19924;-49
2021/12/21 12:25:04;;;;;;;;;;;1.80;99.90;;;;;;5095222;28;19977;-50
2021/12/21 12:27:31;;;;;;;;;;;1.80;99.90;;;;;;5090193;28;19928;-49
2021/12/21 12:29:59;;;;;;;;;;;1.60;99.90;;;;;;5084513;28;19988;-49
2021/12/21 12:32:33;;;;;;;;;;;1.70;99.90;;;;;;5091685;28;19969;-50
2021/12/21 12:35:04;;;;;;;;;;;1.60;99.90;;;;;;5084390;28;19924;-49
2021/12/21 12:37:31;;;;;;;;;;;1.70;99.90;;;;;;5089855;28;20605;-50
2021/12/21 12:40:06;;;;;;;;;;;1.80;99.90;;;;;;5082010;28;20371;-50
2021/12/21 12:42:34;;;;;;;;;;;1.80;99.90;;;;;;5090146;28;19930;-49
2021/12/21 12:45:10;;;;;;;;;;;1.90;99.90;;;;;;5083802;28;19924;-50
2021/12/21 12:47:38;;;;;;;;;;;1.70;99.90;;;;;;5091054;28;19924;-50
2021/12/21 12:50:13;;;;;;;;;;;1.70;99.90;;;;;;5090937;28;19967;-50
2021/12/21 12:52:49;;;;;;;;;;;1.80;99.90;;;;;;5090068;28;20377;-49
2021/12/21 12:55:17;;;;;;;;;;;1.80;99.90;;;;;;5091412;28;19985;-50
2021/12/21 12:57:50;;;;;;;;;;;1.90;99.90;;;;;;5091681;28;19925;-49
2021/12/21 13:00:18;;;;;;;;;;;1.60;99.90;;;;;;5090619;28;19970;-50
2021/12/21 13:02:55;;;;;;;;;;;1.80;99.90;;;;;;5090221;28;19924;-50
2021/12/21 13:05:25;;;;;;;;;;;1.90;99.90;;;;;;5091631;28;19931;-50
2021/12/21 13:07:51;;;;;;;;;;;1.80;99.90;;;;;;5090053;28;21640;-50
2021/12/21 13:10:22;;;;;;;;;;;1.60;99.90;;;;;;5089701;28;19924;-50
2021/12/21 13:12:56;;;;;;;;;;;1.70;99.90;;;;;;5091268;28;20382;-50
2021/12/21 13:15:32;;;;;;;;;;;1.60;99.90;;;;;;5091053;28;19974;-49
2021/12/21 13:18:00;;;;;;;;;;;1.50;99.90;;;;;;5090287;28;19925;-50
2021/12/21 13:20:27;;;;;;;;;;;1.60;99.90;;;;;;5089242;28;19943;-50
2021/12/21 13:22:53;;;;;;;;;;;1.40;99.90;;;;;;5091258;28;19924;-50
2021/12/21 13:25:21;;;;;;;;;;;1.60;99.90;;;;;;5084816;28;19977;-50
2021/12/21 13:27:48;;;;;;;;;;;1.60;99.90;;;;;;5088109;28;19924;-49
2021/12/21 13:30:18;;;;;;;;;;;1.60;99.90;;;;;;5083624;28;19924;-50
2021/12/21 13:32:45;;;;;;;;;;;1.60;99.90;;;;;;5091169;28;19977;-50
2021/12/21 13:35:15;;;;;;;;;;;1.70;99.90;;;;;;5093445;28;20001;-50
2021/12/21 13:37:42;;;;;;;;;;;1.80;99.90;;;;;;5093230;28;19950;-50
2021/12/21 13:40:09;;;;;;;;;;;1.70;99.90;;;;;;5091435;28;19924;-50
2021/12/21 13:42:37;;;;;;;;;;;1.50;99.90;;;;;;5092616;28;19977;-49
2021/12/21 13:45:05;;;;;;;;;;;1.40;99.90;;;;;;5081154;28;19925;-50
2021/12/21 13:47:34;;;;;;;;;;;1.40;99.90;;;;;;5091428;28;19924;-49
2021/12/21 13:50:05;;;;;;;;;;;1.40;99.90;;;;;;5084235;28;19936;-50
2021/12/21 13:52:32;;;;;;;;;;;1.40;99.90;;;;;;5083407;28;20374;-50
2021/12/21 13:55:00;;;;;;;;;;;1.20;99.90;;;;;;5082947;28;19978;-50
2021/12/21 13:57:28;;;;;;;;;;;1.10;99.90;;;;;;5082963;28;19936;-49
2021/12/21 13:59:58;;;;;;;;;;;1.20;99.90;;;;;;5083938;28;19975;-50
2021/12/21 14:02:31;;;;;;;;;;;1.20;99.90;;;;;;5082820;28;19924;-50
2021/12/21 14:05:03;;;;;;;;;;;1.30;99.90;;;;;;5084578;28;20336;-49
2021/12/21 14:07:40;;;;;;;;;;;1.20;99.90;;;;;;5093326;28;19932;-49
2021/12/21 14:10:12;;;;;;;;;;;1.10;99.90;;;;;;5092588;28;19924;-50
2021/12/21 14:12:39;;;;;;;;;;;0.90;99.90;;;;;;5088973;28;19928;-49
2021/12/21 14:15:07;;;;;;;;;;;1.00;99.90;;;;;;5082011;28;19978;-50
2021/12/21 14:17:34;;;;;;;;;;;1.00;99.90;;;;;;5082963;28;19980;-50
2021/12/21 14:20:04;;;;;;;;;;;1.00;99.90;;;;;;5084513;28;19978;-49
2021/12/21 14:22:30;;;;;;;;;;;1.00;99.90;;;;;;5089162;28;19924;-50
2021/12/21 14:24:57;;;;;;;;;;;0.90;99.90;;;;;;5086450;28;20321;-49
2021/12/21 14:27:28;;;;;;;;;;;1.00;99.90;;;;;;5089297;28;19924;-49
2021/12/21 14:30:08;;;;;;;;;;;0.50;99.90;;;;;;5087711;28;19985;-49
2021/12/21 14:35:25;;;;;;;;;;;0.50;99.90;;;;;;5073014;28;20397;-51
2021/12/21 14:37:52;;;;;;;;;;;0.40;99.90;;;;;;5093647;28;19924;-50
2021/12/21 14:40:19;;;;;;;;;;;0.40;99.90;;;;;;5093443;28;19928;-50
2021/12/21 14:42:50;;;;;;;;;;;0.30;99.90;;;;;;5094159;28;19924;-50
2021/12/21 14:45:18;;;;;;;;;;;0.40;99.90;;;;;;5093094;28;20393;-50
2021/12/21 14:47:46;;;;;;;;;;;0.30;99.90;;;;;;5093573;28;19924;-50
2021/12/21 14:50:14;;;;;;;;;;;0.60;99.90;;;;;;5094503;28;19924;-50
2021/12/21 14:52:45;;;;;;;;;;;0.60;99.90;;;;;;5094404;28;19938;-49
2021/12/21 14:55:13;;;;;;;;;;;0.60;99.90;;;;;;5095138;28;19924;-49
2021/12/21 14:57:40;;;;;;;;;;;0.60;99.90;;;;;;5092719;28;20386;-49
2021/12/21 15:00:09;;;;;;;;;;;0.60;99.90;;;;;;5093733;28;20401;-49
2021/12/21 15:02:50;;;;;;;;;;;0.50;99.90;;;;;;5091529;28;19932;-49
2021/12/21 15:05:18;;;;;;;;;;;0.40;99.90;;;;;;5088710;28;20390;-49
2021/12/21 15:07:45;;;;;;;;;;;0.40;99.90;;;;;;5090081;28;19927;-49
2021/12/21 15:10:13;;;;;;;;;;;0.30;99.90;;;;;;5086697;28;19989;-49
2021/12/21 15:12:39;;;;;;;;;;;0.30;99.90;;;;;;5085555;28;19924;-48
2021/12/21 15:15:07;;;;;;;;;;;0.30;99.90;;;;;;5085472;28;19950;-49
2021/12/21 15:17:34;;;;;;;;;;;0.40;99.90;;;;;;5088872;28;19950;-49